powered by Meteolive.it
Dati meteo   Attuali  Passati Ogni 3 ore 7 Giorni 15 Giorni Avvisi Meteo Mappe meteo
Palermo / Punta Raisi, Italy
Alba: 7:20 AM UTC1
Tramonto: 5:16 PM UTC1
 Lat: 38.17N, Lon: 13.08E
ICAO Usato: LICJ
Condizioni Meteo Attuali Aggiornate: 22.01.2017 alle 19:20 LT
Forte Pioggia
Forte Pioggia
Molto Nuvoloso
Forte Pioggia
Temp: 11°C
Umidita': 94%
Direz/Vel. Vento: E 07 KTS
Pressione: 1016 hPa
Punto di rugiada: 10°C
Temperatura percepita: 11°C
Visibilitą: 4000 m. (discreta)
Temperatura percepita in
presenza di vento (Wind Chill)
:
9°C
T. max (ultime 24 ore): 18°C
T. min (ultime 24 ore): 11°C


METAR ORIGINALE
LICJ 221720Z 08007KT 4000 +RA SCT012 BKN025 11/10 Q1016